Time;durP1;ratioP1;P1;durP2;ratioP2;P2;SDS_P1;SDS_P2;PMS_P1;PMS_P2;Temp;Humidity;BMP_temperature;BMP_pressure;BME280_temperature;BME280_humidity;BME280_pressure;Samples;Min_cycle;Max_cycle;Signal;HPM_P1;HPM_P2
2022/01/01 00:00:35;;;;;;;8.60;4.80;;;;;;;10.04;88.43;99498.39;207409;1316;140737;-70
2022/01/01 00:05:41;;;;;;;5.00;4.60;;;;;;;10.04;88.62;99499.30;207499;1316;141860;-69
2022/01/01 00:10:48;;;;;;;5.70;5.30;;;;;;;10.03;88.61;99500.62;207740;1316;142654;-73
2022/01/01 00:15:52;;;;;;;7.20;6.30;;;;;;;10.05;88.50;99508.58;207964;1316;140835;-69
2022/01/01 00:20:58;;;;;;;7.90;5.10;;;;;;;10.06;88.57;99514.20;207189;1315;141630;-73
2022/01/01 00:26:16;;;;;;;4.90;4.40;;;;;;;10.07;88.67;99510.17;207921;1315;161362;-76
2022/01/01 00:31:29;;;;;;;10.30;6.30;;;;;;;10.06;88.49;99514.36;207749;1316;210571;-73
2022/01/01 00:36:34;;;;;;;6.30;5.50;;;;;;;10.08;88.45;99524.56;209201;1316;140920;-72
2022/01/01 00:41:37;;;;;;;8.00;5.90;;;;;;;10.11;88.35;99536.44;209451;1316;142111;-77
2022/01/01 00:46:43;;;;;;;9.30;5.20;;;;;;;10.16;88.29;99540.78;208821;1318;142132;-80
2022/01/01 00:51:56;;;;;;;6.90;5.60;;;;;;;10.14;88.19;99545.33;209541;1317;140875;-73
2022/01/01 00:56:59;;;;;;;11.50;4.80;;;;;;;10.17;88.23;99554.50;209148;1317;144607;-74
2022/01/01 01:02:05;;;;;;;6.30;4.50;;;;;;;10.20;88.02;99556.95;208004;1317;141203;-79
2022/01/01 01:07:12;;;;;;;7.00;4.30;;;;;;;10.21;88.10;99562.88;208710;1319;139518;-74
2022/01/01 01:12:20;;;;;;;5.60;4.90;;;;;;;10.19;87.97;99567.73;208869;1315;140982;-75
2022/01/01 01:17:23;;;;;;;7.50;5.50;;;;;;;10.19;87.94;99574.76;208182;1316;154242;-72
2022/01/01 01:22:28;;;;;;;4.90;3.90;;;;;;;10.16;88.09;99582.83;207773;1316;141165;-74
2022/01/01 01:27:33;;;;;;;5.40;4.70;;;;;;;10.15;88.24;99592.88;207436;1317;140277;-75
2022/01/01 01:32:37;;;;;;;5.30;3.80;;;;;;;10.18;88.36;99601.31;208063;1316;140636;-73
2022/01/01 01:37:41;;;;;;;5.70;5.10;;;;;;;10.19;88.24;99599.54;208447;1316;141929;-74
2022/01/01 01:42:45;;;;;;;5.70;4.40;;;;;;;10.16;88.47;99607.00;207330;1318;141949;-73
2022/01/01 01:48:09;;;;;;;6.70;4.70;;;;;;;10.13;88.20;99597.42;207151;1315;141263;-73
2022/01/01 01:53:12;;;;;;;5.80;5.00;;;;;;;10.12;88.22;99588.92;207141;1315;141510;-73
2022/01/01 01:58:14;;;;;;;8.10;5.50;;;;;;;10.07;88.43;99592.15;207146;1316;141165;-72
2022/01/01 02:03:17;;;;;;;5.90;5.30;;;;;;;10.04;88.46;99602.20;207172;1315;141428;-79
2022/01/01 02:08:21;;;;;;;6.20;5.10;;;;;;;10.03;88.49;99603.62;207258;1316;141449;-76
2022/01/01 02:19:00;;;;;;;7.00;4.80;;;;;;;10.04;88.54;99606.51;207601;1316;141341;-77
2022/01/01 02:24:05;;;;;;;5.50;4.90;;;;;;;10.03;88.55;99609.69;208153;1318;141692;-72
2022/01/01 02:29:08;;;;;;;7.10;6.00;;;;;;;10.02;88.70;99610.48;207575;1316;140379;-69
2022/01/01 02:34:11;;;;;;;7.20;6.00;;;;;;;10.04;88.73;99618.02;208049;1318;139736;-69
2022/01/01 02:39:20;;;;;;;5.10;4.00;;;;;;;10.04;88.77;99617.53;206729;1318;140602;-69
2022/01/01 02:44:25;;;;;;;7.90;5.40;;;;;;;10.01;88.46;99616.77;207801;1318;142197;-70
2022/01/01 02:49:29;;;;;;;5.70;3.90;;;;;;;10.00;88.64;99619.00;208765;1317;141793;-74
2022/01/01 02:54:32;;;;;;;4.60;4.20;;;;;;;9.99;88.69;99631.02;207660;1316;141240;-68
2022/01/01 02:59:36;;;;;;;6.10;4.50;;;;;;;10.01;88.63;99636.11;209304;1319;141859;-76
2022/01/01 03:04:38;;;;;;;5.50;5.00;;;;;;;10.03;88.60;99642.83;208178;1317;141624;-75
2022/01/01 03:09:41;;;;;;;5.70;4.50;;;;;;;10.03;88.46;99645.20;208228;1318;139898;-79
2022/01/01 03:14:47;;;;;;;5.40;4.30;;;;;;;10.02;88.70;99648.91;208466;1316;140527;-71
2022/01/01 03:19:55;;;;;;;4.60;3.90;;;;;;;10.02;88.73;99652.32;207237;1316;141748;-69
2022/01/01 03:24:58;;;;;;;4.80;4.40;;;;;;;10.01;88.63;99653.52;207621;1315;140979;-70
2022/01/01 03:30:03;;;;;;;4.90;3.60;;;;;;;9.97;88.80;99660.09;208105;1316;140857;-76
2022/01/01 03:35:16;;;;;;;4.20;3.60;;;;;;;10.00;88.76;99668.79;208940;1316;140696;-74
2022/01/01 03:40:30;;;;;;;4.80;3.70;;;;;;;10.01;88.94;99673.06;207064;1316;140716;-68
2022/01/01 03:45:42;;;;;;;3.80;3.30;;;;;;;10.03;89.11;99676.95;207781;1317;140303;-71
2022/01/01 03:50:46;;;;;;;3.60;2.70;;;;;;;10.02;88.97;99692.29;208009;1316;142322;-70
2022/01/01 03:55:49;;;;;;;4.00;3.60;;;;;;;10.02;88.97;99697.01;207802;1316;140494;-75
2022/01/01 04:00:52;;;;;;;3.10;2.80;;;;;;;10.04;89.01;99700.63;207816;1316;141094;-70
2022/01/01 04:05:54;;;;;;;3.10;2.70;;;;;;;10.04;89.06;99708.23;207059;1318;142146;-72
2022/01/01 04:10:57;;;;;;;3.00;2.40;;;;;;;10.04;89.14;99723.97;206918;1318;142059;-73
2022/01/01 04:16:00;;;;;;;2.10;1.90;;;;;;;10.03;89.04;99727.35;207513;1317;141670;-73
2022/01/01 04:21:04;;;;;;;1.50;1.40;;;;;;;9.97;88.89;99736.66;206969;1316;142439;-72
2022/01/01 04:26:09;;;;;;;1.60;1.10;;;;;;;9.91;88.91;99728.58;207297;1315;142061;-73
2022/01/01 04:31:15;;;;;;;1.80;1.70;;;;;;;9.85;89.06;99733.91;207554;1315;140624;-72
2022/01/01 04:36:21;;;;;;;2.00;1.90;;;;;;;9.81;89.16;99741.83;207215;1316;141127;-72
2022/01/01 04:41:25;;;;;;;2.50;2.30;;;;;;;9.81;89.25;99736.75;207071;1316;140676;-73
2022/01/01 04:46:28;;;;;;;2.70;2.30;;;;;;;9.82;89.24;99741.48;208850;1317;141202;-73
2022/01/01 04:51:31;;;;;;;2.70;2.10;;;;;;;9.84;89.33;99752.69;207469;1316;140379;-72
2022/01/01 04:56:43;;;;;;;2.80;2.60;;;;;;;9.85;89.27;99757.99;208763;1317;141834;-72
2022/01/01 05:01:50;;;;;;;4.80;3.80;;;;;;;9.89;89.33;99761.77;209062;1317;140274;-73
2022/01/01 05:06:54;;;;;;;4.00;3.60;;;;;;;9.95;89.39;99772.42;209329;1321;141639;-73
2022/01/01 05:11:56;;;;;;;4.90;2.40;;;;;;;10.01;89.00;99775.28;209218;1316;141082;-73
2022/01/01 05:17:00;;;;;;;2.80;2.60;;;;;;;10.01;88.91;99782.86;209040;1317;141945;-73
2022/01/01 05:22:07;;;;;;;3.90;3.00;;;;;;;10.03;88.70;99790.24;208749;1316;141798;-72
2022/01/01 05:27:15;;;;;;;5.40;1.90;;;;;;;9.99;88.59;99797.67;208912;1316;141433;-69
2022/01/01 05:32:21;;;;;;;1.90;1.80;;;;;;;9.97;88.68;99800.37;206993;1316;141301;-73
2022/01/01 05:37:25;;;;;;;2.80;2.00;;;;;;;9.93;88.50;99800.96;207122;1316;139979;-73
2022/01/01 05:42:28;;;;;;;2.30;2.20;;;;;;;9.92;88.86;99810.98;207959;1315;142765;-73
2022/01/01 05:47:34;;;;;;;1.90;1.80;;;;;;;9.90;88.53;99816.48;207776;1316;140173;-73
2022/01/01 05:52:37;;;;;;;1.40;1.30;;;;;;;9.88;88.54;99825.95;206199;1316;1507450;-72
2022/01/01 05:57:42;;;;;;;1.90;1.40;;;;;;;9.86;88.50;99828.46;208430;1316;140983;-72
2022/01/01 06:02:46;;;;;;;2.00;1.80;;;;;;;9.79;88.32;99834.96;207012;1316;142757;-71
2022/01/01 06:07:59;;;;;;;1.70;1.60;;;;;;;9.71;88.32;99837.70;207199;1316;151805;-69
2022/01/01 06:13:06;;;;;;;3.80;1.90;;;;;;;9.65;88.48;99842.63;207691;1316;141426;-69
2022/01/01 06:18:29;;;;;;;1.90;1.80;;;;;;;9.63;88.65;99843.64;207487;1316;142266;-72
2022/01/01 06:23:36;;;;;;;4.60;4.30;;;;;;;9.62;88.75;99846.43;207547;1316;142107;-74
2022/01/01 06:28:41;;;;;;;3.80;3.40;;;;;;;9.63;88.94;99852.27;208280;1316;140723;-72
2022/01/01 06:33:48;;;;;;;2.90;2.60;;;;;;;9.66;89.12;99859.36;208110;1317;141208;-73
2022/01/01 06:39:11;;;;;;;3.00;2.80;;;;;;;9.68;88.76;99866.58;208646;1316;140586;-72
2022/01/01 06:44:14;;;;;;;3.10;2.80;;;;;;;9.70;89.03;99868.39;207629;1316;141781;-72
2022/01/01 06:49:23;;;;;;;9.10;3.20;;;;;;;9.75;88.97;99864.20;207778;1316;141628;-74
2022/01/01 06:54:25;;;;;;;5.10;2.40;;;;;;;9.75;88.97;99868.52;208832;1316;140244;-74
2022/01/01 06:59:29;;;;;;;5.00;2.80;;;;;;;9.79;88.77;99872.44;207420;1317;140666;-71
2022/01/01 07:04:42;;;;;;;3.50;3.20;;;;;;;9.78;88.90;99879.77;207215;1316;140733;-72
2022/01/01 07:09:48;;;;;;;4.60;3.40;;;;;;;9.79;88.90;99887.60;208243;1316;142015;-73
2022/01/01 07:14:52;;;;;;;3.20;3.00;;;;;;;9.79;88.91;99892.79;208329;1319;140928;-73
2022/01/01 07:20:00;;;;;;;3.70;2.80;;;;;;;9.82;88.70;99898.29;208942;1316;140388;-73
2022/01/01 07:25:03;;;;;;;2.90;2.00;;;;;;;9.83;88.56;99905.80;209442;1315;141004;-73
2022/01/01 07:30:07;;;;;;;5.40;4.30;;;;;;;9.88;88.81;99911.92;208686;1316;140066;-72
2022/01/01 07:35:19;;;;;;;2.70;2.50;;;;;;;9.92;88.64;99920.85;208203;1316;141438;-73
2022/01/01 07:40:25;;;;;;;3.50;2.60;;;;;;;9.91;88.58;99925.04;207869;1316;142125;-73
2022/01/01 07:45:28;;;;;;;3.00;2.80;;;;;;;9.90;88.71;99935.45;208127;1316;140964;-70
2022/01/01 07:50:31;;;;;;;1.90;1.80;;;;;;;9.91;88.76;99933.08;207640;1322;142238;-73
2022/01/01 07:55:35;;;;;;;1.60;1.50;;;;;;;9.89;88.66;99935.27;207495;1313;141075;-72
2022/01/01 08:00:38;;;;;;;2.10;1.90;;;;;;;9.88;88.69;99938.43;207388;1316;142741;-73
2022/01/01 08:05:41;;;;;;;2.20;1.30;;;;;;;9.85;88.93;99942.55;207742;1316;141480;-73
2022/01/01 08:10:45;;;;;;;3.60;1.80;;;;;;;9.88;88.99;99950.35;207587;1318;139912;-73
2022/01/01 08:15:48;;;;;;;2.30;1.60;;;;;;;9.90;89.01;99946.59;206988;1318;141323;-72
2022/01/01 08:20:51;;;;;;;2.50;1.90;;;;;;;9.94;89.18;99948.23;206810;1318;141649;-73
2022/01/01 08:25:56;;;;;;;4.10;3.70;;;;;;;9.96;89.15;99955.50;207415;1316;141188;-72
2022/01/01 08:30:59;;;;;;;2.70;2.50;;;;;;;9.97;89.09;99956.46;206984;1316;141718;-73
2022/01/01 08:36:03;;;;;;;2.90;2.40;;;;;;;10.01;89.11;99966.17;208282;1316;141468;-70
2022/01/01 08:41:07;;;;;;;3.00;2.80;;;;;;;10.03;89.10;99971.34;207499;1316;141972;-72
2022/01/01 08:46:11;;;;;;;2.80;2.50;;;;;;;10.00;88.87;99980.15;207087;1315;142298;-72
2022/01/01 08:51:18;;;;;;;6.10;3.70;;;;;;;9.97;88.91;99986.83;207441;1316;142892;-72
2022/01/01 08:56:22;;;;;;;3.60;3.20;;;;;;;9.96;89.03;99992.95;208152;1316;142210;-73
2022/01/01 09:01:28;;;;;;;3.40;3.10;;;;;;;9.99;89.20;100001.27;208085;1316;141724;-72
2022/01/01 09:06:31;;;;;;;2.20;2.10;;;;;;;10.04;89.13;100003.34;206990;1316;142469;-71
2022/01/01 09:11:38;;;;;;;5.50;2.90;;;;;;;10.04;89.16;100003.13;207598;1316;141786;-71
2022/01/01 09:16:51;;;;;;;6.80;4.60;;;;;;;10.10;89.17;100007.86;208853;1316;143886;-73
2022/01/01 09:21:55;;;;;;;5.70;5.20;;;;;;;10.13;89.06;100008.94;209313;1316;141672;-73
2022/01/01 09:27:00;;;;;;;5.30;4.30;;;;;;;10.19;89.18;100008.27;208397;1313;141390;-70
2022/01/01 09:32:04;;;;;;;4.30;3.60;;;;;;;10.26;89.15;100018.23;208709;1317;141984;-70
2022/01/01 09:37:23;;;;;;;;;;;;;;;;;;;;;
2022/01/01 09:42:34;;;;;;;3.50;3.30;;;;;;;10.33;88.93;100022.53;207192;1316;141746;-68
2022/01/01 09:47:44;;;;;;;3.60;3.20;;;;;;;10.33;88.95;100027.66;207072;1318;141380;-72
2022/01/01 09:52:54;;;;;;;4.40;3.20;;;;;;;10.31;88.77;100030.75;208342;1317;141007;-73
2022/01/01 09:58:01;;;;;;;3.90;3.60;;;;;;;10.31;88.95;100031.98;207274;1316;140730;-72
2022/01/01 10:03:13;;;;;;;4.90;4.50;;;;;;;10.34;88.97;100038.34;207554;1316;140731;-73
2022/01/01 10:08:23;;;;;;;2.60;2.40;;;;;;;10.42;88.99;100041.95;208614;1316;141053;-70
2022/01/01 10:13:36;;;;;;;4.90;3.90;;;;;;;10.52;88.93;100043.45;208065;1315;141064;-72
2022/01/01 10:18:47;;;;;;;8.10;3.60;;;;;;;10.60;89.18;100045.89;207887;1318;142725;-70
2022/01/01 10:24:05;;;;;;;2.90;2.70;;;;;;;10.62;88.65;100047.96;207149;1317;140960;-72
2022/01/01 10:29:31;;;;;;;3.50;3.10;;;;;;;10.63;88.75;100053.02;206901;1317;141451;-73
2022/01/01 10:34:46;;;;;;;3.70;3.40;;;;;;;10.66;88.76;100054.63;207402;1316;141673;-72
2022/01/01 10:40:29;;;;;;;3.60;2.90;;;;;;;10.66;88.67;100049.98;208689;1316;141117;-74
2022/01/01 10:45:48;;;;;;;5.40;3.40;;;;;;;10.60;88.61;100056.14;207084;1316;140226;-71
2022/01/01 10:51:08;;;;;;;4.90;4.40;;;;;;;10.64;88.93;100061.63;208244;1316;140598;-73
2022/01/01 10:56:23;;;;;;;5.00;4.30;;;;;;;10.71;88.53;100064.20;207851;1318;140778;-73
2022/01/01 11:01:33;;;;;;;3.30;3.00;;;;;;;10.76;88.80;100070.77;207205;1313;141061;-73
2022/01/01 11:06:39;;;;;;;4.40;3.90;;;;;;;10.77;88.44;100068.84;208345;1316;140576;-73
2022/01/01 11:11:44;;;;;;;6.40;4.50;;;;;;;10.75;88.32;100075.71;208937;1316;141112;-71
2022/01/01 11:16:51;;;;;;;5.90;4.20;;;;;;;10.72;88.37;100089.91;208187;1316;140074;-71
2022/01/01 11:21:54;;;;;;;8.70;5.70;;;;;;;10.75;88.56;100094.70;209190;1317;141246;-73
2022/01/01 11:26:58;;;;;;;3.40;2.50;;;;;;;10.79;88.35;100097.90;208602;1317;141066;-73
2022/01/01 11:32:11;;;;;;;2.90;2.70;;;;;;;10.85;88.32;100098.19;209048;1318;141682;-73
2022/01/01 11:37:14;;;;;;;4.00;2.70;;;;;;;10.82;88.21;100103.20;209252;1317;141070;-73
2022/01/01 11:42:18;;;;;;;3.40;2.30;;;;;;;10.80;88.18;100102.23;207689;1317;142673;-72
2022/01/01 11:47:24;;;;;;;6.30;4.40;;;;;;;10.79;88.00;100112.34;208849;1316;141686;-74
2022/01/01 11:52:40;;;;;;;8.30;4.20;;;;;;;10.75;88.00;100115.02;207866;1316;142606;-72
2022/01/01 11:58:12;;;;;;;3.70;3.40;;;;;;;10.71;88.08;100116.51;208158;1318;142165;-73
2022/01/01 12:03:23;;;;;;;4.10;3.70;;;;;;;10.66;88.26;100117.41;208248;1317;140729;-71
2022/01/01 12:08:41;;;;;;;4.50;4.10;;;;;;;10.64;88.19;100119.46;207683;1318;143990;-74
2022/01/01 12:13:54;;;;;;;;;;;;;;;10.62;88.16;100118.95;207617;1318;140875;-73
2022/01/01 12:19:06;;;;;;;3.40;3.20;;;;;;;10.56;88.17;100114.92;207348;1315;128290;-71
2022/01/01 12:24:21;;;;;;;3.70;3.40;;;;;;;10.53;88.26;100114.67;207473;1315;140834;-71
2022/01/01 12:29:31;;;;;;;4.20;3.80;;;;;;;10.46;88.30;100125.04;206967;1316;141105;-73
2022/01/01 12:34:38;;;;;;;4.40;4.00;;;;;;;10.42;88.48;100133.90;207842;1318;140369;-73
2022/01/01 12:40:04;;;;;;;5.60;3.90;;;;;;;10.39;88.49;100142.71;207538;1315;152124;-72
2022/01/01 12:45:08;;;;;;;4.50;4.10;;;;;;;10.35;88.29;100145.66;207077;1315;141775;-73
2022/01/01 12:50:16;;;;;;;4.20;3.50;;;;;;;10.30;88.55;100147.27;207335;1315;141643;-73
2022/01/01 12:55:44;;;;;;;4.30;3.80;;;;;;;10.32;88.52;100153.93;206944;1318;140444;-72
2022/01/01 13:00:48;;;;;;;3.50;3.20;;;;;;;10.38;88.70;100169.08;207451;1316;141142;-73
2022/01/01 13:05:51;;;;;;;3.80;3.10;;;;;;;10.39;88.46;100175.73;207322;1317;153142;-68
2022/01/01 13:10:54;;;;;;;4.50;4.00;;;;;;;10.42;88.59;100187.36;207622;1317;152161;-73
2022/01/01 13:15:59;;;;;;;7.70;2.90;;;;;;;10.45;88.43;100196.19;207376;1315;142379;-75
2022/01/01 13:21:02;;;;;;;3.00;2.70;;;;;;;10.47;88.45;100195.32;207066;1315;141806;-72
2022/01/01 13:26:06;;;;;;;2.50;2.30;;;;;;;10.45;88.36;100199.43;208293;1317;141046;-77
2022/01/01 13:31:10;;;;;;;2.40;2.20;;;;;;;10.42;88.23;100205.41;207099;1317;209612;-76
2022/01/01 13:36:33;;;;;;;4.40;4.00;;;;;;;10.41;88.35;100219.89;207030;1315;142596;-72
2022/01/01 13:41:41;;;;;;;7.80;3.70;;;;;;;10.38;87.95;100231.59;208507;1314;141031;-75
2022/01/01 13:46:45;;;;;;;4.10;2.30;;;;;;;10.35;87.94;100241.39;209061;1315;142813;-77
2022/01/01 13:51:58;;;;;;;3.00;2.80;;;;;;;10.34;87.75;100247.52;208000;1316;954638;-79
2022/01/01 13:57:09;;;;;;;2.50;2.20;;;;;;;10.30;87.58;100246.11;208117;1316;139987;-74
2022/01/01 14:02:25;;;;;;;;;;;;;;;;;;;;;
2022/01/01 14:07:44;;;;;;;4.70;3.20;;;;;;;10.21;87.06;100256.48;208604;1317;142227;-71
2022/01/01 14:13:13;;;;;;;4.20;3.10;;;;;;;10.14;87.20;100267.80;207611;1318;140940;-73
2022/01/01 14:18:26;;;;;;;2.40;2.30;;;;;;;10.12;87.27;100280.16;206857;1318;140814;-70
2022/01/01 14:23:34;;;;;;;4.50;3.40;;;;;;;10.11;87.36;100292.74;207214;1318;142352;-75
2022/01/01 14:28:39;;;;;;;5.30;3.00;;;;;;;10.07;87.42;100302.55;207302;1315;141257;-79
2022/01/01 14:33:49;;;;;;;4.10;2.50;;;;;;;9.98;87.24;100311.92;207779;1318;141999;-69
2022/01/01 14:38:55;;;;;;;4.20;3.10;;;;;;;9.90;87.24;100326.36;206835;1318;147163;-69
2022/01/01 14:44:07;;;;;;;3.60;2.70;;;;;;;9.83;86.95;100340.14;207000;1318;141984;-69
2022/01/01 14:49:48;;;;;;;5.00;2.80;;;;;;;9.66;86.77;100349.83;207468;1318;140659;-71
2022/01/01 14:55:11;;;;;;;5.80;3.90;;;;;;;9.50;86.81;100359.53;206816;1313;140044;-73
2022/01/01 15:00:21;;;;;;;4.50;4.10;;;;;;;9.39;87.12;100369.70;208165;1316;139700;-73
2022/01/01 15:05:25;;;;;;;4.80;4.40;;;;;;;9.28;86.85;100380.67;207015;1316;139712;-71
2022/01/01 15:10:39;;;;;;;5.00;3.90;;;;;;;9.13;86.85;100394.97;207076;1318;209961;-76
2022/01/01 15:15:52;;;;;;;4.60;4.10;;;;;;;9.01;86.97;100403.83;207400;1318;141627;-72
2022/01/01 15:21:02;;;;;;;4.70;3.60;;;;;;;8.93;86.90;100401.67;208334;1318;140533;-71
2022/01/01 15:26:06;;;;;;;5.30;4.30;;;;;;;8.96;87.22;100406.49;208044;1317;141458;-71
2022/01/01 15:31:24;;;;;;;5.30;4.80;;;;;;;8.96;87.09;100412.27;208939;1318;140661;-76
2022/01/01 15:36:39;;;;;;;4.60;3.60;;;;;;;8.96;87.24;100414.23;209295;1318;141809;-74
2022/01/01 15:47:19;;;;;;;6.20;4.10;;;;;;;8.99;86.89;100423.23;208304;1318;140590;-77
2022/01/01 15:52:23;;;;;;;7.00;4.10;;;;;;;8.99;87.01;100425.31;208411;1318;140835;-73
2022/01/01 15:57:31;;;;;;;5.00;3.80;;;;;;;9.01;86.88;100422.45;207897;1317;140385;-79
2022/01/01 16:02:58;;;;;;;8.90;5.50;;;;;;;9.04;86.80;100427.36;208134;1316;141155;-74
2022/01/01 16:08:22;;;;;;;7.50;6.00;;;;;;;9.05;86.76;100441.05;207984;1316;140340;-73
2022/01/01 16:13:27;;;;;;;9.10;6.10;;;;;;;9.06;86.86;100447.11;208164;1313;140976;-78
2022/01/01 16:18:41;;;;;;;7.00;6.30;;;;;;;9.09;86.67;100445.14;207081;1318;142058;-76
2022/01/01 16:23:47;;;;;;;8.00;6.30;;;;;;;9.13;86.54;100450.83;208058;1316;139982;-77
2022/01/01 16:28:52;;;;;;;;;;;;;;;9.11;86.65;100451.93;208933;1315;140605;-77
2022/01/01 16:33:55;;;;;;;7.30;4.90;;;;;;;9.07;86.66;100457.38;209078;1318;127530;-78
2022/01/01 16:38:58;;;;;;;7.60;6.70;;;;;;;9.07;86.27;100456.48;206544;1318;143614;-78
2022/01/01 16:44:08;;;;;;;7.20;5.90;;;;;;;9.06;86.43;100465.40;207066;1318;146576;-77
2022/01/01 16:49:15;;;;;;;6.40;5.80;;;;;;;9.02;86.40;100470.88;207014;1318;140539;-79
2022/01/01 16:54:17;;;;;;;11.10;7.20;;;;;;;8.97;86.30;100468.47;207065;1316;141447;-79
2022/01/01 16:59:23;;;;;;;5.30;4.50;;;;;;;8.97;86.64;100471.90;206851;1318;140435;-73
2022/01/01 17:04:34;;;;;;;9.40;6.70;;;;;;;8.95;86.39;100476.41;207506;1316;141173;-72
2022/01/01 17:09:37;;;;;;;8.90;7.60;;;;;;;8.95;86.32;100482.86;206767;1316;140207;-70
2022/01/01 17:14:50;;;;;;;8.10;7.20;;;;;;;8.94;86.42;100488.06;208177;1316;141095;-70
2022/01/01 17:20:03;;;;;;;7.80;6.10;;;;;;;8.95;86.48;100491.91;207522;1315;139961;-73
2022/01/01 17:25:09;;;;;;;8.30;6.00;;;;;;;8.88;86.31;100493.68;207300;1317;151656;-72
2022/01/01 17:30:14;;;;;;;9.20;5.80;;;;;;;8.78;85.87;100503.75;206849;1317;140562;-76
2022/01/01 17:35:35;;;;;;;9.30;6.40;;;;;;;8.73;86.09;100507.91;207483;1318;141240;-74
2022/01/01 17:40:44;;;;;;;6.90;4.60;;;;;;;8.70;85.80;100508.15;207899;1317;141728;-73
2022/01/01 17:45:49;;;;;;;6.80;4.00;;;;;;;8.66;85.91;100512.85;207444;1317;141792;-72
2022/01/01 17:51:03;;;;;;;11.80;4.40;;;;;;;8.58;85.61;100513.66;208366;1316;141403;-74
2022/01/01 17:56:08;;;;;;;4.80;4.30;;;;;;;8.54;85.76;100520.13;209183;1316;141687;-75
2022/01/01 18:01:12;;;;;;;9.70;5.00;;;;;;;8.50;85.57;100523.23;209443;1314;142427;-70
2022/01/01 18:06:20;;;;;;;5.30;3.90;;;;;;;8.47;85.60;100530.41;209222;1317;141641;-75
2022/01/01 18:11:26;;;;;;;5.80;3.60;;;;;;;8.34;85.27;100536.61;207857;1316;141198;-74
2022/01/01 18:16:30;;;;;;;5.70;3.50;;;;;;;8.21;85.39;100535.38;209076;1316;141036;-76
2022/01/01 18:21:37;;;;;;;6.10;4.20;;;;;;;8.12;85.50;100540.83;208403;1317;141093;-73
2022/01/01 18:26:48;;;;;;;7.20;4.50;;;;;;;8.06;85.67;100539.61;207461;1315;140625;-73
2022/01/01 18:31:53;;;;;;;14.10;3.80;;;;;;;8.07;85.83;100549.39;208277;1316;140351;-75
2022/01/01 18:37:20;;;;;;;5.70;4.40;;;;;;;8.14;85.79;100552.55;207758;1316;141089;-75
2022/01/01 18:42:24;;;;;;;;;;;;;;;8.21;85.94;100558.23;207554;1316;140169;-74
2022/01/01 18:47:30;;;;;;;14.20;4.70;;;;;;;8.19;86.16;100563.53;208520;1316;127395;-75
2022/01/01 18:52:47;;;;;;;6.50;4.80;;;;;;;8.24;86.14;100572.30;207886;1318;140178;-76
2022/01/01 18:58:00;;;;;;;;;;;;;;;8.29;86.23;100582.30;207429;1317;158980;-75
2022/01/01 19:03:06;;;;;;;7.20;5.90;;;;;;;8.25;85.95;100590.40;208869;1316;126517;-77
2022/01/01 19:08:17;;;;;;;8.00;4.80;;;;;;;8.22;85.92;100594.89;207443;1316;140265;-75
2022/01/01 19:13:26;;;;;;;6.90;5.20;;;;;;;8.20;85.98;100594.05;206823;1316;141307;-74
2022/01/01 19:18:31;;;;;;;9.50;5.00;;;;;;;8.23;85.85;100596.04;207259;1316;141215;-75
2022/01/01 19:23:37;;;;;;;8.40;5.00;;;;;;;8.22;85.85;100600.23;207162;1318;140304;-73
2022/01/01 19:28:42;;;;;;;8.10;5.60;;;;;;;8.21;86.03;100602.89;207113;1318;139653;-71
2022/01/01 19:33:49;;;;;;;9.20;5.10;;;;;;;8.16;85.84;100612.30;207535;1316;140756;-71
2022/01/01 19:38:54;;;;;;;10.70;6.10;;;;;;;8.17;86.15;100616.47;207494;1316;141151;-71
2022/01/01 19:44:18;;;;;;;8.50;5.10;;;;;;;8.18;86.05;100620.52;208002;1315;140151;-70
2022/01/01 19:49:23;;;;;;;7.70;5.60;;;;;;;8.20;85.87;100615.10;208370;1316;141199;-72
2022/01/01 19:54:32;;;;;;;6.50;4.50;;;;;;;8.22;85.91;100612.05;207934;1316;140676;-70
2022/01/01 19:59:37;;;;;;;7.00;4.60;;;;;;;8.22;86.00;100611.92;207875;1316;140099;-72
2022/01/01 20:04:46;;;;;;;10.60;5.70;;;;;;;8.18;85.91;100614.68;208838;1315;141896;-72
2022/01/01 20:10:01;;;;;;;5.20;4.70;;;;;;;8.17;85.72;100622.77;209189;1317;140502;-77
2022/01/01 20:15:08;;;;;;;6.80;6.10;;;;;;;8.12;85.30;100626.41;208474;1316;140295;-77
2022/01/01 20:20:12;;;;;;;5.60;4.90;;;;;;;8.01;84.92;100614.39;208606;1316;140830;-78
2022/01/01 20:25:16;;;;;;;5.20;4.00;;;;;;;7.91;85.21;100611.28;209286;1318;140363;-79
2022/01/01 20:30:23;;;;;;;4.90;4.20;;;;;;;7.92;85.36;100613.63;206932;1316;141379;-80
2022/01/01 20:35:25;;;;;;;6.30;4.70;;;;;;;7.88;85.24;100612.61;207400;1316;140840;-72
2022/01/01 20:40:30;;;;;;;8.80;5.30;;;;;;;7.86;85.43;100615.62;208234;1318;140554;-78
2022/01/01 20:45:33;;;;;;;6.30;4.80;;;;;;;7.80;85.59;100614.30;207853;1319;139893;-74
2022/01/01 20:50:36;;;;;;;7.10;6.20;;;;;;;7.76;85.22;100608.20;206898;1315;140238;-75
2022/01/01 20:55:39;;;;;;;5.60;5.00;;;;;;;7.75;85.92;100617.75;208479;1316;140754;-75
2022/01/01 21:00:42;;;;;;;6.50;4.80;;;;;;;7.82;86.00;100622.24;207734;1316;140708;-76
2022/01/01 21:05:54;;;;;;;7.40;4.70;;;;;;;7.85;86.05;100623.05;206915;1317;141789;-75
2022/01/01 21:10:58;;;;;;;7.50;5.10;;;;;;;7.85;85.67;100626.89;207535;1318;141394;-74
2022/01/01 21:16:03;;;;;;;5.90;5.30;;;;;;;7.77;84.94;100614.13;207238;1316;140407;-72
2022/01/01 21:21:06;;;;;;;7.50;5.10;;;;;;;7.67;85.41;100610.10;207038;1316;141615;-73
2022/01/01 21:26:11;;;;;;;7.30;5.90;;;;;;;7.61;85.61;100616.00;207483;1316;140772;-72
2022/01/01 21:31:14;;;;;;;8.70;5.50;;;;;;;7.58;85.78;100617.98;207179;1316;140320;-69
2022/01/01 21:36:17;;;;;;;6.00;4.70;;;;;;;7.56;85.81;100619.35;207233;1316;139879;-70
2022/01/01 21:41:24;;;;;;;5.80;4.80;;;;;;;7.60;86.19;100622.48;207636;1316;140869;-70
2022/01/01 21:46:29;;;;;;;8.00;5.30;;;;;;;7.56;85.55;100614.94;208363;1316;140275;-70
2022/01/01 21:51:32;;;;;;;7.30;4.40;;;;;;;7.49;85.65;100613.70;207447;1316;939086;-70
2022/01/01 21:56:35;;;;;;;6.30;4.00;;;;;;;7.53;86.06;100614.09;207331;1318;142071;-71
2022/01/01 22:01:38;;;;;;;6.10;5.30;;;;;;;7.44;85.53;100607.41;208485;1318;140147;-72
2022/01/01 22:06:41;;;;;;;4.50;4.00;;;;;;;7.37;86.04;100607.55;208489;1316;141548;-72
2022/01/01 22:11:47;;;;;;;6.40;4.60;;;;;;;7.40;85.91;100609.83;208596;1315;140699;-71
2022/01/01 22:16:56;;;;;;;10.00;6.60;;;;;;;7.42;85.71;100605.27;209132;1316;141068;-71
2022/01/01 22:22:00;;;;;;;11.10;8.40;;;;;;;7.45;86.23;100609.91;208631;1318;140242;-71
2022/01/01 22:27:11;;;;;;;9.70;7.40;;;;;;;7.51;85.68;100618.77;207867;1318;140814;-70
2022/01/01 22:32:14;;;;;;;13.40;8.70;;;;;;;7.51;86.14;100615.17;208543;1316;141422;-68
2022/01/01 22:37:18;;;;;;;12.50;8.20;;;;;;;7.57;86.34;100606.33;208152;1316;141402;-69
2022/01/01 22:42:26;;;;;;;16.60;9.30;;;;;;;7.61;85.80;100601.48;207624;1316;142429;-75
2022/01/01 22:47:30;;;;;;;14.50;10.30;;;;;;;7.60;86.14;100601.75;208115;1316;140954;-75
2022/01/01 22:52:33;;;;;;;15.10;9.40;;;;;;;7.62;86.16;100593.79;207534;1316;140377;-71
2022/01/01 22:57:38;;;;;;;21.40;11.30;;;;;;;7.55;85.81;100587.23;208430;1316;140829;-71
2022/01/01 23:02:41;;;;;;;25.00;11.20;;;;;;;7.53;86.02;100588.59;207773;1317;142095;-72
2022/01/01 23:07:45;;;;;;;15.70;9.30;;;;;;;7.56;86.43;100593.10;207585;1318;140793;-72
2022/01/01 23:12:48;;;;;;;15.50;8.90;;;;;;;7.59;86.32;100591.90;206961;1317;139924;-71
2022/01/01 23:23:09;;;;;;;18.60;10.50;;;;;;;7.72;86.67;100585.14;207487;1318;140575;-71
2022/01/01 23:28:17;;;;;;;19.10;10.90;;;;;;;7.73;86.24;100584.02;206837;1319;140226;-70
2022/01/01 23:33:22;;;;;;;12.00;9.40;;;;;;;7.64;86.26;100569.38;207027;1316;141977;-68
2022/01/01 23:38:25;;;;;;;15.50;9.40;;;;;;;7.56;86.03;100565.14;207701;1316;140258;-74
2022/01/01 23:43:28;;;;;;;21.00;9.80;;;;;;;7.54;86.14;100564.96;207180;1316;141157;-70
2022/01/01 23:48:31;;;;;;;20.20;10.90;;;;;;;7.46;86.00;100555.08;207742;1317;141116;-73
2022/01/01 23:53:47;;;;;;;18.50;8.80;;;;;;;7.41;86.29;100550.09;207377;1317;140966;-74